createdAt,value
2023-01-19T00:00:53.470Z,98949.03
2023-01-19T00:03:20.167Z,98956.81
2023-01-19T00:05:46.992Z,98948.75
2023-01-19T00:08:16.673Z,98948.75
2023-01-19T00:10:45.420Z,98955.72
2023-01-19T00:13:12.579Z,98959.06
2023-01-19T00:15:39.298Z,98968.03
2023-01-19T00:18:06.142Z,98962.28
2023-01-19T00:20:35.317Z,98964.06
2023-01-19T00:23:03.368Z,98968.28
2023-01-19T00:25:30.744Z,98965.88
2023-01-19T00:27:57.649Z,98960.50
2023-01-19T00:30:25.138Z,98966.66
2023-01-19T00:32:51.870Z,98966.28
2023-01-19T00:35:18.523Z,98960.34
2023-01-19T00:37:46.133Z,98966.50
2023-01-19T00:40:14.031Z,98973.38
2023-01-19T00:42:40.985Z,98974.25
2023-01-19T00:45:09.648Z,98978.94
2023-01-19T00:47:36.686Z,98976.69
2023-01-19T00:50:03.513Z,98981.63
2023-01-19T00:52:30.158Z,98976.69
2023-01-19T00:54:56.959Z,98975.69
2023-01-19T00:57:23.733Z,98983.50
2023-01-19T00:59:50.396Z,98977.59
2023-01-19T01:02:17.372Z,98974.81
2023-01-19T01:04:44.259Z,98975.50
2023-01-19T01:07:10.887Z,98982.50
2023-01-19T01:09:37.486Z,98985.75
2023-01-19T01:12:04.527Z,98984.56
2023-01-19T01:14:32.786Z,98987.34
2023-01-19T01:17:00.560Z,98995.69
2023-01-19T01:19:27.338Z,99000.22
2023-01-19T01:21:55.434Z,99005.00
2023-01-19T01:24:22.330Z,99002.50
2023-01-19T01:26:49.095Z,99011.03
2023-01-19T01:29:15.803Z,98999.78
2023-01-19T01:31:42.470Z,99000.13
2023-01-19T01:34:09.215Z,99001.81
2023-01-19T01:36:36.120Z,99005.25
2023-01-19T01:39:03.395Z,99003.91
2023-01-19T01:41:30.399Z,99006.50
2023-01-19T01:44:02.935Z,99000.63
2023-01-19T01:46:31.388Z,99008.72
2023-01-19T01:49:04.092Z,99009.44
2023-01-19T01:51:44.187Z,99002.75
2023-01-19T01:54:23.391Z,98995.81
2023-01-19T01:56:52.063Z,99001.16
2023-01-19T01:59:26.035Z,98996.19
2023-01-19T02:02:15.516Z,98993.41
2023-01-19T02:04:50.684Z,98993.00
2023-01-19T02:07:43.199Z,98998.56
2023-01-19T02:10:28.599Z,98991.41
2023-01-19T02:13:14.298Z,98991.16
2023-01-19T02:15:44.131Z,98996.78
2023-01-19T02:18:10.847Z,98997.78
2023-01-19T02:20:39.569Z,99001.47
2023-01-19T02:23:12.658Z,99002.16
2023-01-19T02:25:40.520Z,99002.06
2023-01-19T02:28:07.752Z,99007.56
2023-01-19T02:30:35.676Z,99012.50
2023-01-19T02:33:02.739Z,99009.47
2023-01-19T02:35:31.020Z,99010.41
2023-01-19T02:37:57.917Z,99018.81
2023-01-19T02:40:25.771Z,99019.91
2023-01-19T02:42:53.150Z,99010.56
2023-01-19T02:45:21.570Z,99008.47
2023-01-19T02:47:50.800Z,99007.88
2023-01-19T02:50:35.919Z,99004.75
2023-01-19T02:53:33.969Z,99005.66
2023-01-19T02:56:28.554Z,99008.03
2023-01-19T02:59:15.563Z,99001.16
2023-01-19T03:02:08.823Z,99001.22
2023-01-19T03:05:00.528Z,98999.56
2023-01-19T03:07:53.305Z,99003.00
2023-01-19T03:10:43.457Z,99008.22
2023-01-19T03:13:26.280Z,98999.13
2023-01-19T03:15:56.617Z,98997.72
2023-01-19T03:18:26.299Z,98996.53
2023-01-19T03:20:56.629Z,99001.81
2023-01-19T03:23:26.664Z,99007.03
2023-01-19T03:25:54.443Z,99006.78
2023-01-19T03:28:22.822Z,98999.44
2023-01-19T03:30:56.622Z,99011.72
2023-01-19T03:33:27.396Z,99005.41
2023-01-19T03:35:58.798Z,99010.91
2023-01-19T03:38:26.354Z,99012.63
2023-01-19T03:40:59.147Z,99004.22
2023-01-19T03:43:26.592Z,99012.13
2023-01-19T03:45:53.422Z,99007.00
2023-01-19T03:48:21.402Z,99012.97
2023-01-19T03:50:48.179Z,99008.75
2023-01-19T03:53:16.643Z,99014.56
2023-01-19T03:55:47.051Z,99014.56
2023-01-19T03:58:13.930Z,99018.09
2023-01-19T04:00:40.619Z,99008.75
2023-01-19T04:03:13.352Z,99018.88
2023-01-19T04:05:40.238Z,99016.16
2023-01-19T04:08:06.968Z,99022.31
2023-01-19T04:10:33.691Z,99018.09
2023-01-19T04:13:01.736Z,99025.75
2023-01-19T04:15:29.171Z,99025.41
2023-01-19T04:18:00.188Z,99029.19
2023-01-19T04:20:28.169Z,99033.22
2023-01-19T04:22:56.116Z,99031.72
2023-01-19T04:25:22.945Z,99033.66
2023-01-19T04:27:52.861Z,99037.84
2023-01-19T04:30:19.843Z,99033.16
2023-01-19T04:32:46.743Z,99034.91
2023-01-19T04:35:13.516Z,99036.50
2023-01-19T04:37:40.222Z,99031.13
2023-01-19T04:40:07.745Z,99029.16
2023-01-19T04:42:34.739Z,99030.09
2023-01-19T04:45:01.417Z,99037.09
2023-01-19T04:47:29.399Z,99033.16
2023-01-19T04:49:55.996Z,99033.91
2023-01-19T04:52:22.659Z,99028.31
2023-01-19T04:54:49.274Z,99034.66
2023-01-19T04:57:15.894Z,99033.22
2023-01-19T04:59:42.787Z,99035.72
2023-01-19T05:02:09.512Z,99035.28
2023-01-19T05:04:36.364Z,99033.28
2023-01-19T05:07:03.136Z,99032.59
2023-01-19T05:09:29.750Z,99034.69
2023-01-19T05:11:56.474Z,99032.09
2023-01-19T05:14:23.228Z,99029.31
2023-01-19T05:16:50.143Z,99039.84
2023-01-19T05:19:17.110Z,99045.13
2023-01-19T05:21:43.920Z,99043.28
2023-01-19T05:24:11.052Z,99045.63
2023-01-19T05:26:37.823Z,99044.88
2023-01-19T05:29:04.681Z,99043.78
2023-01-19T05:31:31.455Z,99043.78
2023-01-19T05:34:01.641Z,99046.56
2023-01-19T05:36:28.307Z,99043.88
2023-01-19T05:38:54.968Z,99058.75
2023-01-19T05:41:21.740Z,99060.28
2023-01-19T05:43:48.426Z,99057.56
2023-01-19T05:46:15.314Z,99058.69
2023-01-19T05:48:41.947Z,99059.25
2023-01-19T05:51:08.966Z,99052.94
2023-01-19T05:53:35.582Z,99061.88
2023-01-19T05:56:05.083Z,99068.88
2023-01-19T05:58:34.336Z,99067.09
2023-01-19T06:01:06.396Z,99066.16
2023-01-19T06:03:34.471Z,99061.78
2023-01-19T06:06:01.612Z,99072.50
2023-01-19T06:08:28.327Z,99072.06
2023-01-19T06:10:55.159Z,99070.09
2023-01-19T06:13:21.921Z,99068.50
2023-01-19T06:15:48.668Z,99067.66
2023-01-19T06:18:15.373Z,99059.59
2023-01-19T06:20:42.027Z,99063.22
2023-01-19T06:23:08.736Z,99065.91
2023-01-19T06:25:35.383Z,99073.66
2023-01-19T06:28:02.045Z,99079.63
2023-01-19T06:30:29.003Z,99080.03
2023-01-19T06:32:55.849Z,99075.84
2023-01-19T06:35:22.514Z,99072.31
2023-01-19T06:37:49.194Z,99082.66
2023-01-19T06:40:15.850Z,99082.44
2023-01-19T06:42:42.610Z,99076.84
2023-01-19T06:45:10.164Z,99084.59
2023-01-19T06:47:36.855Z,99089.81
2023-01-19T06:50:03.565Z,99099.31
2023-01-19T06:52:30.247Z,99096.81
2023-01-19T06:54:56.931Z,99101.28
2023-01-19T06:57:23.657Z,99101.94
2023-01-19T06:59:50.294Z,99093.19
2023-01-19T07:02:27.062Z,99102.44
2023-01-19T07:04:56.350Z,99107.66
2023-01-19T07:07:23.039Z,99106.63
2023-01-19T07:09:49.768Z,99103.13
2023-01-19T07:12:20.607Z,99101.41
2023-01-19T07:14:49.298Z,99097.97
2023-01-19T07:17:15.982Z,99101.59
2023-01-19T07:19:42.978Z,99094.59
2023-01-19T07:22:09.663Z,99103.97
2023-01-19T07:24:37.952Z,99096.97
2023-01-19T07:27:05.331Z,99100.97
2023-01-19T07:29:31.991Z,99107.03
2023-01-19T07:31:58.654Z,99110.41
2023-01-19T07:34:25.311Z,99117.16
2023-01-19T07:36:51.963Z,99112.25
2023-01-19T07:39:18.697Z,99112.69
2023-01-19T07:41:45.406Z,99108.38
2023-01-19T07:44:13.950Z,99112.19
2023-01-19T07:46:41.159Z,99113.84
2023-01-19T07:49:08.095Z,99111.94
2023-01-19T07:51:34.794Z,99117.91
2023-01-19T07:54:01.689Z,99104.75
2023-01-19T07:56:32.634Z,99117.81
2023-01-19T07:58:59.524Z,99113.34
2023-01-19T08:01:26.296Z,99123.13
2023-01-19T08:03:53.142Z,99124.63
2023-01-19T08:06:22.271Z,99124.63
2023-01-19T08:08:49.340Z,99121.75
2023-01-19T08:11:16.282Z,99121.09
2023-01-19T08:13:43.483Z,99134.22
2023-01-19T08:16:10.758Z,99133.28
2023-01-19T08:18:37.598Z,99131.34
2023-01-19T08:21:04.813Z,99134.72
2023-01-19T08:23:31.465Z,99139.09
2023-01-19T08:25:58.096Z,99138.25
2023-01-19T08:28:24.811Z,99142.38
2023-01-19T08:30:54.620Z,99140.59
2023-01-19T08:33:23.154Z,99145.06
2023-01-19T08:35:52.375Z,99145.16
2023-01-19T08:38:19.403Z,99146.66
2023-01-19T08:40:46.182Z,99138.75
2023-01-19T08:43:15.649Z,99143.88
2023-01-19T08:45:49.056Z,99148.94
2023-01-19T08:48:16.163Z,99144.41
2023-01-19T08:50:45.205Z,99149.78
2023-01-19T08:53:11.921Z,99147.81
2023-01-19T08:55:39.177Z,99149.50
2023-01-19T08:58:06.515Z,99141.56
2023-01-19T09:00:38.013Z,99147.72
2023-01-19T09:03:06.536Z,99158.00
2023-01-19T09:05:39.019Z,99157.16
2023-01-19T09:08:11.103Z,99159.59
2023-01-19T09:10:39.024Z,99162.03
2023-01-19T09:13:08.418Z,99167.94
2023-01-19T09:15:37.589Z,99164.28
2023-01-19T09:18:05.869Z,99151.97
2023-01-19T09:20:34.574Z,99158.69
2023-01-19T09:23:01.355Z,99155.44
2023-01-19T09:25:27.994Z,99162.91
2023-01-19T09:27:56.065Z,99159.53
2023-01-19T09:30:22.739Z,99158.88
2023-01-19T09:32:49.375Z,99162.41
2023-01-19T09:35:16.453Z,99156.28
2023-01-19T09:37:47.161Z,99148.69
2023-01-19T09:40:15.338Z,99158.13
2023-01-19T09:42:43.997Z,99162.59
2023-01-19T09:45:36.574Z,99155.44
2023-01-19T09:48:19.193Z,99159.72
2023-01-19T09:50:47.435Z,99150.66
2023-01-19T09:53:18.795Z,99153.09
2023-01-19T09:55:45.654Z,99152.84
2023-01-19T09:58:16.195Z,99156.38
2023-01-19T10:00:50.017Z,99154.41
2023-01-19T10:03:17.777Z,99158.53
2023-01-19T10:06:03.613Z,99155.25
2023-01-19T10:08:46.521Z,99161.16
2023-01-19T10:11:26.307Z,99158.34
2023-01-19T10:13:54.657Z,99159.88
2023-01-19T10:17:15.629Z,99154.72
2023-01-19T10:19:46.823Z,99158.84
2023-01-19T10:22:25.724Z,99156.22
2023-01-19T10:24:56.354Z,99165.47
2023-01-19T10:27:28.925Z,99157.63
2023-01-19T10:29:56.701Z,99159.22
2023-01-19T10:32:26.241Z,99147.94
2023-01-19T10:34:53.968Z,99160.81
2023-01-19T10:37:32.777Z,99154.00
2023-01-19T10:40:11.609Z,99155.56
2023-01-19T10:42:41.427Z,99150.16
2023-01-19T10:45:25.942Z,99155.50
2023-01-19T10:47:53.895Z,99156.16
2023-01-19T10:50:34.962Z,99152.88
2023-01-19T10:53:04.016Z,99156.16
2023-01-19T10:55:34.284Z,99161.19
2023-01-19T10:58:01.941Z,99154.47
2023-01-19T11:00:33.185Z,99160.44
2023-01-19T11:03:00.636Z,99154.91
2023-01-19T11:05:32.843Z,99154.00
2023-01-19T11:07:59.749Z,99156.44
2023-01-19T11:10:30.133Z,99161.56
2023-01-19T11:13:15.678Z,99156.44
2023-01-19T11:15:45.197Z,99159.69
2023-01-19T11:18:25.494Z,99162.31
2023-01-19T11:20:53.952Z,99160.25
2023-01-19T11:23:33.584Z,99156.88
2023-01-19T11:26:01.928Z,99153.06
2023-01-19T11:28:32.928Z,99153.72
2023-01-19T11:31:16.698Z,99153.44
2023-01-19T11:33:51.819Z,99154.28
2023-01-19T11:36:30.152Z,99155.94
2023-01-19T11:38:59.577Z,99152.22
2023-01-19T11:41:28.825Z,99166.03
2023-01-19T11:43:58.245Z,99143.41
2023-01-19T11:46:28.609Z,99145.88
2023-01-19T11:49:01.973Z,99144.09
2023-01-19T11:51:34.350Z,99144.84
2023-01-19T11:54:03.227Z,99141.28
2023-01-19T11:56:29.937Z,99142.94
2023-01-19T11:58:56.800Z,99141.06
2023-01-19T12:01:26.104Z,99135.75
2023-01-19T12:04:04.413Z,99129.69
2023-01-19T12:06:35.391Z,99132.09
2023-01-19T12:09:06.101Z,99135.34
2023-01-19T12:11:37.816Z,99132.66
2023-01-19T12:14:04.806Z,99132.44
2023-01-19T12:16:32.983Z,99135.81
2023-01-19T12:19:02.678Z,99122.78
2023-01-19T12:21:29.555Z,99114.72
2023-01-19T12:24:16.390Z,99113.06
2023-01-19T12:26:43.314Z,99113.81
2023-01-19T12:29:15.507Z,99104.38
2023-01-19T12:31:45.406Z,99106.13
2023-01-19T12:34:40.695Z,99112.31
2023-01-19T12:37:27.311Z,99107.91
2023-01-19T12:39:54.683Z,99099.84
2023-01-19T12:42:21.531Z,99105.00
2023-01-19T12:44:48.418Z,99104.19
2023-01-19T12:47:15.054Z,99097.25
2023-01-19T12:49:43.767Z,99101.66
2023-01-19T12:52:51.266Z,99098.28
2023-01-19T12:55:22.813Z,99107.00
2023-01-19T12:57:55.470Z,99102.47
2023-01-19T13:00:22.179Z,99111.91
2023-01-19T13:02:58.254Z,99112.78
2023-01-19T13:05:32.695Z,99112.78
2023-01-19T13:08:02.809Z,99111.81
2023-01-19T13:11:00.194Z,99112.03
2023-01-19T13:13:30.958Z,99116.09
2023-01-19T13:16:19.497Z,99117.28
2023-01-19T13:18:54.115Z,99121.56
2023-01-19T13:21:35.306Z,99117.34
2023-01-19T13:24:16.441Z,99127.75
2023-01-19T13:26:49.076Z,99125.13
2023-01-19T13:29:21.701Z,99131.94
2023-01-19T13:32:02.298Z,99126.69
2023-01-19T13:34:33.428Z,99131.53
2023-01-19T13:37:01.980Z,99132.38
2023-01-19T13:39:37.094Z,99125.25
2023-01-19T13:42:07.969Z,99131.25
2023-01-19T13:44:41.889Z,99131.31
2023-01-19T13:47:15.369Z,99127.66
2023-01-19T13:49:46.219Z,99126.63
2023-01-19T13:52:20.975Z,99127.59
2023-01-19T13:54:59.799Z,99128.34
2023-01-19T13:57:28.853Z,99125.59
2023-01-19T14:00:19.459Z,99123.94
2023-01-19T14:03:13.220Z,99117.09
2023-01-19T14:05:44.239Z,99122.88
2023-01-19T14:08:14.799Z,99115.97
2023-01-19T14:10:44.224Z,99124.66
2023-01-19T14:13:25.780Z,99129.25
2023-01-19T14:15:59.004Z,99142.16
2023-01-19T14:18:26.810Z,99135.72
2023-01-19T14:21:04.211Z,99133.78
2023-01-19T14:23:40.475Z,99137.03
2023-01-19T14:26:39.269Z,99135.78
2023-01-19T14:29:18.413Z,99137.47
2023-01-19T14:31:47.346Z,99146.91
2023-01-19T14:34:39.656Z,99149.00
2023-01-19T14:37:28.714Z,99143.00
2023-01-19T14:40:11.142Z,99147.09
2023-01-19T14:43:00.155Z,99146.53
2023-01-19T14:45:32.494Z,99151.59
2023-01-19T14:48:06.406Z,99146.47
2023-01-19T14:50:36.435Z,99146.47
2023-01-19T14:53:05.857Z,99150.75
2023-01-19T14:55:36.633Z,99150.03
2023-01-19T14:58:10.175Z,99143.22
2023-01-19T15:00:36.922Z,99146.53
2023-01-19T15:03:07.494Z,99139.72
2023-01-19T15:05:34.342Z,99151.06
2023-01-19T15:08:02.089Z,99145.91
2023-01-19T15:10:29.005Z,99150.31
2023-01-19T15:12:56.282Z,99148.63
2023-01-19T15:15:29.618Z,99160.03
2023-01-19T15:17:56.405Z,99157.16
2023-01-19T15:20:23.776Z,99160.34
2023-01-19T15:22:50.500Z,99156.88
2023-01-19T15:25:20.208Z,99158.66
2023-01-19T15:27:47.689Z,99163.78
2023-01-19T15:30:27.839Z,99162.31
2023-01-19T15:32:54.551Z,99171.84
2023-01-19T15:35:22.747Z,99159.59
2023-01-19T15:37:50.719Z,99164.94
2023-01-19T15:40:19.050Z,99171.84
2023-01-19T15:42:45.875Z,99168.38
2023-01-19T15:45:33.774Z,99164.28
2023-01-19T15:48:11.163Z,99170.47
2023-01-19T15:50:40.906Z,99173.81
2023-01-19T15:53:07.952Z,99173.81
2023-01-19T15:55:34.646Z,99175.69
2023-01-19T15:58:01.691Z,99165.22
2023-01-19T16:00:29.748Z,99178.22
2023-01-19T16:02:56.734Z,99161.66
2023-01-19T16:05:30.606Z,99166.06
2023-01-19T16:08:04.422Z,99166.19
2023-01-19T16:10:31.175Z,99167.09
2023-01-19T16:12:57.879Z,99165.22
2023-01-19T16:15:25.372Z,99168.69
2023-01-19T16:17:52.094Z,99170.47
2023-01-19T16:20:18.790Z,99180.09
2023-01-19T16:22:45.483Z,99177.56
2023-01-19T16:25:12.311Z,99168.03
2023-01-19T16:27:39.090Z,99175.78
2023-01-19T16:30:06.385Z,99173.16
2023-01-19T16:32:33.842Z,99183.75
2023-01-19T16:35:00.616Z,99175.06
2023-01-19T16:37:28.148Z,99186.44
2023-01-19T16:39:54.956Z,99181.34
2023-01-19T16:42:21.759Z,99178.72
2023-01-19T16:44:48.508Z,99184.78
2023-01-19T16:47:15.548Z,99190.84
2023-01-19T16:49:42.397Z,99188.44
2023-01-19T16:52:09.349Z,99193.88
2023-01-19T16:54:37.423Z,99194.78
2023-01-19T16:57:05.369Z,99197.41
2023-01-19T16:59:32.135Z,99195.72
2023-01-19T17:01:59.009Z,99197.59
2023-01-19T17:04:27.139Z,99203.66
2023-01-19T17:06:54.646Z,99196.66
2023-01-19T17:09:21.557Z,99200.22
2023-01-19T17:11:48.455Z,99197.97
2023-01-19T17:14:19.734Z,99199.66
2023-01-19T17:16:47.414Z,99203.19
2023-01-19T17:19:16.455Z,99201.44
2023-01-19T17:21:48.615Z,99203.19
2023-01-19T17:24:15.914Z,99209.31
2023-01-19T17:26:42.778Z,99205.25
2023-01-19T17:29:09.890Z,99207.78
2023-01-19T17:31:36.995Z,99210.50
2023-01-19T17:34:04.055Z,99207.78
2023-01-19T17:36:31.590Z,99207.88
2023-01-19T17:39:00.153Z,99203.50
2023-01-19T17:41:29.228Z,99210.59
2023-01-19T17:48:10.780Z,99211.84
2023-01-19T17:50:37.642Z,99219.56
2023-01-19T17:53:04.403Z,99218.72
2023-01-19T17:55:34.577Z,99221.44
2023-01-19T17:58:01.938Z,99217.78
2023-01-19T18:00:29.073Z,99222.19
2023-01-19T18:02:55.805Z,99224.81
2023-01-19T18:05:23.836Z,99221.44
2023-01-19T18:07:50.560Z,99226.59
2023-01-19T18:10:17.418Z,99223.13
2023-01-19T18:12:45.207Z,99228.44
2023-01-19T18:15:12.291Z,99224.16
2023-01-19T18:17:39.019Z,99228.56
2023-01-19T18:20:06.122Z,99225.06
2023-01-19T18:22:33.389Z,99225.19
2023-01-19T18:25:01.570Z,99232.94
2023-01-19T18:27:29.131Z,99228.63
2023-01-19T18:29:56.556Z,99224.34
2023-01-19T18:32:23.298Z,99226.09
2023-01-19T18:34:52.249Z,99219.84
2023-01-19T18:37:19.023Z,99220.97
2023-01-19T18:39:46.309Z,99224.34
2023-01-19T18:42:13.054Z,99228.84
2023-01-19T18:44:39.762Z,99226.41
2023-01-19T18:47:06.479Z,99222.94
2023-01-19T18:49:33.199Z,99228.16
2023-01-19T18:51:59.899Z,99229.66
2023-01-19T18:54:26.560Z,99235.94
2023-01-19T18:56:53.334Z,99230.88
2023-01-19T18:59:20.159Z,99231.66
2023-01-19T19:01:46.906Z,99238.63
2023-01-19T19:04:13.766Z,99235.94
2023-01-19T19:06:40.454Z,99237.59
2023-01-19T19:09:07.250Z,99234.06
2023-01-19T19:11:34.384Z,99243.78
2023-01-19T19:14:02.031Z,99237.03
2023-01-19T19:16:29.559Z,99231.72
2023-01-19T19:18:56.390Z,99236.13
2023-01-19T19:21:25.424Z,99236.00
2023-01-19T19:23:54.081Z,99236.69
2023-01-19T19:26:23.942Z,99239.50
2023-01-19T19:32:05.863Z,99242.72
2023-01-19T19:34:33.839Z,99236.41
2023-01-19T19:37:01.344Z,99236.19
2023-01-19T19:39:28.669Z,99242.25
2023-01-19T19:41:55.407Z,99242.56
2023-01-19T19:44:22.276Z,99247.59
2023-01-19T19:46:49.228Z,99243.13
2023-01-19T19:49:21.264Z,99245.00
2023-01-19T19:51:48.591Z,99243.03
2023-01-19T19:54:15.306Z,99244.72
2023-01-19T19:56:41.982Z,99244.72
2023-01-19T19:59:08.718Z,99247.34
2023-01-19T20:01:35.528Z,99250.88
2023-01-19T20:04:07.673Z,99256.38
2023-01-19T20:06:38.717Z,99251.06
2023-01-19T20:09:07.734Z,99257.97
2023-01-19T20:11:34.889Z,99256.28
2023-01-19T20:14:07.871Z,99254.78
2023-01-19T20:16:34.858Z,99256.38
2023-01-19T20:19:01.597Z,99246.66
2023-01-19T20:21:30.778Z,99250.97
2023-01-19T20:24:00.739Z,99250.03
2023-01-19T20:26:30.327Z,99247.41
2023-01-19T20:28:59.751Z,99254.63
2023-01-19T20:31:29.159Z,99248.38
2023-01-19T20:33:58.054Z,99252.72
2023-01-19T20:36:24.923Z,99261.16
2023-01-19T20:38:53.277Z,99258.72
2023-01-19T20:41:21.020Z,99258.72
2023-01-19T20:43:47.770Z,99261.34
2023-01-19T20:46:14.466Z,99263.19
2023-01-19T20:48:41.241Z,99261.59
2023-01-19T20:51:10.663Z,99261.44
2023-01-19T20:53:38.126Z,99265.09
2023-01-19T20:56:06.275Z,99267.69
2023-01-19T20:58:33.414Z,99266.00
2023-01-19T21:01:00.126Z,99272.06
2023-01-19T21:03:26.963Z,99273.84
2023-01-19T21:05:53.645Z,99278.91
2023-01-19T21:08:20.491Z,99272.81
2023-01-19T21:10:47.171Z,99285.25
2023-01-19T21:13:13.983Z,99288.72
2023-01-19T21:15:40.628Z,99284.22
2023-01-19T21:18:07.423Z,99286.75
2023-01-19T21:20:34.116Z,99285.06
2023-01-19T21:23:00.783Z,99293.88
2023-01-19T21:25:27.533Z,99295.72
2023-01-19T21:27:54.174Z,99305.25
2023-01-19T21:30:20.996Z,99300.28
2023-01-19T21:32:47.805Z,99303.56
2023-01-19T21:35:14.864Z,99306.00
2023-01-19T21:37:41.895Z,99307.66
2023-01-19T21:40:09.279Z,99306.84
2023-01-19T21:42:35.917Z,99312.00
2023-01-19T21:45:02.663Z,99314.69
2023-01-19T21:47:29.396Z,99304.97
2023-01-19T21:49:56.171Z,99315.44
2023-01-19T21:52:22.908Z,99312.00
2023-01-19T21:54:49.644Z,99313.09
2023-01-19T21:57:19.513Z,99308.69
2023-01-19T21:59:46.218Z,99312.25
2023-01-19T22:02:13.143Z,99319.84
2023-01-19T22:04:40.599Z,99317.28
2023-01-19T22:07:07.373Z,99319.72
2023-01-19T22:09:35.030Z,99319.09
2023-01-19T22:12:02.158Z,99323.56
2023-01-19T22:14:29.346Z,99320.94
2023-01-19T22:16:56.112Z,99327.94
2023-01-19T22:19:22.936Z,99327.00
2023-01-19T22:21:49.606Z,99330.38
2023-01-19T22:24:16.383Z,99333.00
2023-01-19T22:26:43.079Z,99330.38
2023-01-19T22:29:11.239Z,99337.22
2023-01-19T22:31:38.899Z,99331.50
2023-01-19T22:34:10.099Z,99343.66
2023-01-19T22:36:37.576Z,99338.34
2023-01-19T22:39:09.829Z,99346.19
2023-01-19T22:41:39.364Z,99343.72
2023-01-19T22:44:08.703Z,99349.81
2023-01-19T22:46:36.512Z,99341.88
2023-01-19T22:49:07.615Z,99346.66
2023-01-19T22:51:34.844Z,99346.66
2023-01-19T22:54:02.400Z,99351.81
2023-01-19T22:56:30.891Z,99352.06
2023-01-19T22:58:58.031Z,99354.69
2023-01-19T23:01:33.572Z,99346.91
2023-01-19T23:04:01.794Z,99351.22
2023-01-19T23:06:30.376Z,99345.44
2023-01-19T23:08:59.320Z,99350.66
2023-01-19T23:11:35.569Z,99352.44
2023-01-19T23:14:03.204Z,99351.56
2023-01-19T23:16:30.055Z,99348.03
2023-01-19T23:18:57.772Z,99351.56
2023-01-19T23:21:26.988Z,99351.56
2023-01-19T23:24:01.263Z,99352.50
2023-01-19T23:26:28.767Z,99353.09
2023-01-19T23:29:00.396Z,99354.69
2023-01-19T23:31:32.703Z,99349.06
2023-01-19T23:34:01.563Z,99354.19
2023-01-19T23:36:30.175Z,99353.53
2023-01-19T23:38:58.751Z,99353.47
2023-01-19T23:41:26.337Z,99356.06
2023-01-19T23:43:53.003Z,99361.19
2023-01-19T23:46:20.186Z,99362.03
2023-01-19T23:48:47.147Z,99361.31
2023-01-19T23:51:19.766Z,99363.34
2023-01-19T23:53:46.777Z,99364.25
2023-01-19T23:56:17.364Z,99363.25
2023-01-19T23:58:45.370Z,99360.44
